Time,TemperatureF,DewpointF,PressureIn,WindDirection,WindDirectionDegrees,WindSpeedMPH,WindSpeedGustMPH,Humidity,HourlyPrecipIn,Conditions,Clouds,dailyrainin,SoftwareType,DateUTC
2013-02-07 00:11:00,42.0,39.0,30.05,SSW,205,0.0,0.0,90,0.00,,,0.00,weatherlink.com 1.10,2013-02-07 06:11:00,
2013-02-07 00:26:00,42.2,40.0,30.06,SSW,205,0.0,0.0,90,0.00,,,0.00,weatherlink.com 1.10,2013-02-07 06:26:00,
2013-02-07 00:41:00,42.5,40.0,30.07,SSW,205,0.0,0.0,90,0.00,,,0.00,weatherlink.com 1.10,2013-02-07 06:41:00,
2013-02-07 00:56:00,42.9,41.0,30.08,SSW,205,0.0,0.0,91,0.00,,,0.00,weatherlink.com 1.10,2013-02-07 06:56:00,
2013-02-07 01:11:00,43.2,41.0,30.08,SSW,205,0.0,0.0,90,0.00,,,0.00,weatherlink.com 1.10,2013-02-07 07:11:00,
2013-02-07 01:26:00,43.4,41.0,30.08,SSW,205,0.0,0.0,90,0.00,,,0.00,weatherlink.com 1.10,2013-02-07 07:26:00,
2013-02-07 01:41:00,43.7,41.0,30.08,SSW,205,0.0,0.0,91,0.00,,,0.00,weatherlink.com 1.10,2013-02-07 07:41:00,
2013-02-07 01:56:00,44.2,42.0,30.07,SSW,205,0.0,0.0,92,0.00,,,0.00,weatherlink.com 1.10,2013-02-07 07:56:00,
2013-02-07 02:11:00,44.6,42.0,30.07,SSW,205,0.0,0.0,91,0.00,,,0.00,weatherlink.com 1.10,2013-02-07 08:11:00,
2013-02-07 02:26:00,45.4,42.0,30.06,SSW,205,0.0,0.0,86,0.00,,,0.00,weatherlink.com 1.10,2013-02-07 08:26:00,
2013-02-07 02:42:00,47.0,41.0,30.05,SE,128,0.0,1.0,80,0.00,,,0.00,weatherlink.com 1.10,2013-02-07 08:42:00,
2013-02-07 02:56:00,47.9,41.0,30.05,SE,128,0.0,0.0,77,0.00,,,0.00,weatherlink.com 1.10,2013-02-07 08:56:00,
2013-02-07 03:11:00,47.4,43.0,30.06,ESE,111,0.0,2.0,85,0.01,,,0.01,weatherlink.com 1.10,2013-02-07 09:11:00,
2013-02-07 03:26:00,46.2,44.0,30.06,SSE,166,0.0,1.0,90,0.03,,,0.03,weatherlink.com 1.10,2013-02-07 09:26:00,
2013-02-07 03:41:00,45.8,44.0,30.05,South,176,0.0,0.0,92,0.04,,,0.04,weatherlink.com 1.10,2013-02-07 09:41:00,
2013-02-07 03:57:00,45.6,44.0,30.06,South,178,0.0,0.0,93,0.06,,,0.06,weatherlink.com 1.10,2013-02-07 09:57:00,
2013-02-07 04:12:00,45.6,44.0,30.07,South,178,0.0,0.0,94,0.08,,,0.09,weatherlink.com 1.10,2013-02-07 10:12:00,
2013-02-07 04:27:00,45.6,44.0,30.08,South,177,0.0,1.0,94,0.14,,,0.17,weatherlink.com 1.10,2013-02-07 10:27:00,
2013-02-07 04:42:00,45.7,44.0,30.09,South,177,0.0,0.0,94,0.14,,,0.18,weatherlink.com 1.10,2013-02-07 10:42:00,
2013-02-07 04:57:00,45.7,44.0,30.08,South,177,0.0,0.0,95,0.12,,,0.18,weatherlink.com 1.10,2013-02-07 10:57:00,
2013-02-07 05:12:00,45.7,44.0,30.07,South,176,0.0,0.0,95,0.09,,,0.18,weatherlink.com 1.10,2013-02-07 11:12:00,
2013-02-07 05:27:00,45.7,44.0,30.07,ENE,76,0.0,0.0,95,0.02,,,0.19,weatherlink.com 1.10,2013-02-07 11:27:00,
2013-02-07 05:42:00,45.8,45.0,30.07,ENE,76,0.0,0.0,95,0.02,,,0.20,weatherlink.com 1.10,2013-02-07 11:42:00,
2013-02-07 05:57:00,45.8,45.0,30.07,ENE,76,0.0,0.0,95,0.02,,,0.20,weatherlink.com 1.10,2013-02-07 11:57:00,
2013-02-07 06:12:00,45.8,45.0,30.04,ENE,76,0.0,0.0,95,0.03,,,0.21,weatherlink.com 1.10,2013-02-07 12:12:00,
2013-02-07 06:27:00,45.8,45.0,30.05,NNE,15,0.0,0.0,95,0.03,,,0.22,weatherlink.com 1.10,2013-02-07 12:27:00,
2013-02-07 06:42:00,45.7,44.0,30.05,East,92,1.0,2.0,95,0.02,,,0.22,weatherlink.com 1.10,2013-02-07 12:42:00,
2013-02-07 06:57:00,45.6,44.0,30.04,East,84,0.0,3.0,94,0.02,,,0.22,weatherlink.com 1.10,2013-02-07 12:57:00,
2013-02-07 07:12:00,45.4,44.0,30.03,East,84,0.0,0.0,94,0.01,,,0.22,weatherlink.com 1.10,2013-02-07 13:12:00,
2013-02-07 07:27:00,45.2,44.0,30.04,SE,126,0.0,3.0,94,0.00,,,0.22,weatherlink.com 1.10,2013-02-07 13:27:00,
2013-02-07 07:42:00,45.1,44.0,30.02,ESE,109,0.0,2.0,94,0.00,,,0.22,weatherlink.com 1.10,2013-02-07 13:42:00,
2013-02-07 07:57:00,44.9,43.0,30.01,SSE,155,0.0,2.0,93,0.00,,,0.22,weatherlink.com 1.10,2013-02-07 13:57:00,
2013-02-07 08:12:00,44.9,43.0,30.01,East,84,0.0,1.0,93,0.00,,,0.22,weatherlink.com 1.10,2013-02-07 14:12:00,
2013-02-07 08:27:00,44.9,43.0,30.01,ESE,114,0.0,1.0,93,0.00,,,0.22,weatherlink.com 1.10,2013-02-07 14:27:00,
2013-02-07 08:42:00,45.3,43.0,30.02,East,96,0.0,3.0,93,0.00,,,0.22,weatherlink.com 1.10,2013-02-07 14:42:00,
2013-02-07 08:57:00,45.5,44.0,30.01,East,89,0.0,1.0,93,0.00,,,0.22,weatherlink.com 1.10,2013-02-07 14:57:00,
2013-02-07 09:12:00,45.8,44.0,30.00,ENE,67,0.0,2.0,92,0.00,,,0.22,weatherlink.com 1.10,2013-02-07 15:12:00,
2013-02-07 09:27:00,46.2,44.0,29.99,NE,42,1.0,3.0,91,0.00,,,0.22,weatherlink.com 1.10,2013-02-07 15:27:00,
2013-02-07 09:42:00,46.4,44.0,30.00,East,96,0.0,2.0,90,0.00,,,0.22,weatherlink.com 1.10,2013-02-07 15:42:00,
2013-02-07 09:57:00,46.4,44.0,30.00,SE,140,0.0,3.0,90,0.00,,,0.22,weatherlink.com 1.10,2013-02-07 15:57:00,
2013-02-07 10:12:00,46.5,44.0,30.01,ESE,109,0.0,4.0,90,0.00,,,0.22,weatherlink.com 1.10,2013-02-07 16:12:00,
2013-02-07 10:27:00,46.6,44.0,30.00,NNE,28,0.0,2.0,90,0.00,,,0.22,weatherlink.com 1.10,2013-02-07 16:27:00,
2013-02-07 10:42:00,46.7,44.0,29.99,ENE,59,0.0,2.0,90,0.00,,,0.22,weatherlink.com 1.10,2013-02-07 16:42:00,
2013-02-07 10:57:00,46.9,44.0,29.98,ESE,103,0.0,3.0,88,0.00,,,0.22,weatherlink.com 1.10,2013-02-07 16:57:00,
2013-02-07 11:12:00,47.0,44.0,29.97,East,86,0.0,5.0,89,0.00,,,0.22,weatherlink.com 1.10,2013-02-07 17:12:00,
2013-02-07 11:27:00,47.1,44.0,29.98,ESE,114,0.0,2.0,88,0.00,,,0.22,weatherlink.com 1.10,2013-02-07 17:27:00,
2013-02-07 11:42:00,47.0,44.0,29.97,ENE,67,0.0,3.0,88,0.00,,,0.22,weatherlink.com 1.10,2013-02-07 17:42:00,
2013-02-07 11:57:00,47.2,44.0,29.96,East,86,0.0,5.0,88,0.00,,,0.22,weatherlink.com 1.10,2013-02-07 17:57:00,
2013-02-07 12:12:00,47.2,44.0,29.95,East,92,0.0,4.0,89,0.00,,,0.22,weatherlink.com 1.10,2013-02-07 18:12:00,
2013-02-07 12:27:00,46.9,45.0,29.95,East,84,0.0,2.0,91,0.01,,,0.23,weatherlink.com 1.10,2013-02-07 18:27:00,
2013-02-07 12:43:00,46.8,45.0,29.95,NE,42,0.0,5.0,92,0.01,,,0.23,weatherlink.com 1.10,2013-02-07 18:43:00,
2013-02-07 12:57:00,46.8,45.0,29.94,ENE,71,0.0,4.0,93,0.02,,,0.24,weatherlink.com 1.10,2013-02-07 18:57:00,
2013-02-07 13:13:00,46.9,45.0,29.93,ENE,59,0.0,6.0,93,0.02,,,0.24,weatherlink.com 1.10,2013-02-07 19:13:00,
2013-02-07 13:27:00,46.9,45.0,29.92,ENE,71,0.0,1.0,93,0.02,,,0.25,weatherlink.com 1.10,2013-02-07 19:27:00,
2013-02-07 13:42:00,47.0,45.0,29.92,East,87,0.0,3.0,94,0.02,,,0.25,weatherlink.com 1.10,2013-02-07 19:42:00,
2013-02-07 13:57:00,47.2,46.0,29.91,East,94,0.0,2.0,94,0.01,,,0.25,weatherlink.com 1.10,2013-02-07 19:57:00,
2013-02-07 14:12:00,47.3,46.0,29.90,ENE,71,0.0,1.0,94,0.02,,,0.26,weatherlink.com 1.10,2013-02-07 20:12:00,
2013-02-07 14:27:00,47.5,46.0,29.90,North,5,0.0,3.0,95,0.01,,,0.26,weatherlink.com 1.10,2013-02-07 20:27:00,
2013-02-07 14:42:00,47.6,46.0,29.91,ESE,107,0.0,2.0,94,0.01,,,0.26,weatherlink.com 1.10,2013-02-07 20:42:00,
2013-02-07 14:57:00,47.7,46.0,29.90,East,80,0.0,2.0,95,0.04,,,0.29,weatherlink.com 1.10,2013-02-07 20:57:00,
2013-02-07 15:14:00,47.6,46.0,29.90,ENE,70,0.0,2.0,94,0.05,,,0.31,weatherlink.com 1.10,2013-02-07 21:14:00,
2013-02-07 15:28:00,47.6,46.0,29.90,NE,37,0.0,1.0,95,0.07,,,0.33,weatherlink.com 1.10,2013-02-07 21:28:00,
2013-02-07 15:43:00,47.6,46.0,29.90,East,87,0.0,3.0,95,0.08,,,0.34,weatherlink.com 1.10,2013-02-07 21:43:00,
2013-02-07 15:58:00,47.6,46.0,29.90,East,79,0.0,3.0,95,0.05,,,0.34,weatherlink.com 1.10,2013-02-07 21:58:00,
2013-02-07 16:13:00,47.5,46.0,29.90,East,83,0.0,2.0,95,0.03,,,0.34,weatherlink.com 1.10,2013-02-07 22:13:00,
2013-02-07 16:28:00,47.5,46.0,29.90,East,101,0.0,2.0,95,0.01,,,0.34,weatherlink.com 1.10,2013-02-07 22:28:00,
2013-02-07 16:43:00,47.4,46.0,29.91,East,81,0.0,1.0,95,0.00,,,0.34,weatherlink.com 1.10,2013-02-07 22:43:00,
2013-02-07 16:58:00,47.4,46.0,29.91,NNE,26,0.0,2.0,95,0.00,,,0.34,weatherlink.com 1.10,2013-02-07 22:58:00,
2013-02-07 17:13:00,47.4,46.0,29.91,East,84,0.0,2.0,95,0.00,,,0.34,weatherlink.com 1.10,2013-02-07 23:13:00,
2013-02-07 17:28:00,47.4,46.0,29.91,NNE,25,0.0,2.0,95,0.00,,,0.34,weatherlink.com 1.10,2013-02-07 23:28:00,
2013-02-07 17:43:00,47.3,46.0,29.92,East,101,0.0,4.0,95,0.00,,,0.34,weatherlink.com 1.10,2013-02-07 23:43:00,
2013-02-07 17:58:00,47.2,46.0,29.91,ENE,69,1.0,5.0,95,0.00,,,0.34,weatherlink.com 1.10,2013-02-07 23:58:00,
2013-02-07 18:13:00,47.1,46.0,29.91,ENE,63,1.0,3.0,95,0.01,,,0.35,weatherlink.com 1.10,2013-02-08 00:13:00,
2013-02-07 18:28:00,47.1,46.0,29.91,NE,56,0.0,1.0,95,0.01,,,0.35,weatherlink.com 1.10,2013-02-08 00:28:00,
2013-02-07 18:43:00,47.0,46.0,29.92,NE,53,0.0,2.0,95,0.01,,,0.35,weatherlink.com 1.10,2013-02-08 00:43:00,
2013-02-07 18:58:00,46.9,46.0,29.92,NE,44,0.0,1.0,95,0.01,,,0.35,weatherlink.com 1.10,2013-02-08 00:58:00,
2013-02-07 19:28:00,46.9,46.0,29.92,ENE,61,0.0,2.0,95,0.00,,,0.35,weatherlink.com 1.10,2013-02-08 01:28:00,
2013-02-07 19:43:00,47.0,46.0,29.93,ESE,119,0.0,2.0,95,0.00,,,0.35,weatherlink.com 1.10,2013-02-08 01:43:00,
2013-02-07 19:58:00,47.0,46.0,29.93,NE,40,0.0,1.0,95,0.00,,,0.35,weatherlink.com 1.10,2013-02-08 01:58:00,
2013-02-07 20:13:00,47.0,46.0,29.93,ENE,76,0.0,1.0,95,0.01,,,0.36,weatherlink.com 1.10,2013-02-08 02:13:00,
2013-02-07 20:28:00,47.0,46.0,29.94,NE,53,0.0,1.0,95,0.01,,,0.36,weatherlink.com 1.10,2013-02-08 02:28:00,
2013-02-07 20:43:00,47.1,46.0,29.94,ESE,115,0.0,0.0,95,0.01,,,0.36,weatherlink.com 1.10,2013-02-08 02:43:00,
2013-02-07 20:58:00,47.1,46.0,29.94,ESE,108,0.0,2.0,96,0.01,,,0.36,weatherlink.com 1.10,2013-02-08 02:58:00,
2013-02-07 21:12:00,47.1,46.0,29.94,ESE,104,0.0,0.0,96,0.00,,,0.36,weatherlink.com 1.10,2013-02-08 03:12:00,
2013-02-07 21:28:00,47.1,46.0,29.93,NNW,327,0.0,2.0,96,0.00,,,0.36,weatherlink.com 1.10,2013-02-08 03:28:00,
2013-02-07 21:43:00,47.1,46.0,29.93,WNW,299,0.0,4.0,96,0.00,,,0.36,weatherlink.com 1.10,2013-02-08 03:43:00,
2013-02-07 21:58:00,47.1,46.0,29.93,ENE,66,0.0,3.0,96,0.01,,,0.37,weatherlink.com 1.10,2013-02-08 03:58:00,
2013-02-07 22:13:00,47.1,46.0,29.92,SE,139,0.0,2.0,96,0.01,,,0.37,weatherlink.com 1.10,2013-02-08 04:13:00,
2013-02-07 22:28:00,47.1,46.0,29.92,SSE,148,0.0,3.0,96,0.01,,,0.37,weatherlink.com 1.10,2013-02-08 04:28:00,
2013-02-07 22:43:00,47.1,46.0,29.92,ESE,113,0.0,2.0,96,0.01,,,0.37,weatherlink.com 1.10,2013-02-08 04:43:00,
2013-02-07 22:58:00,47.1,46.0,29.93,South,173,0.0,1.0,96,0.00,,,0.37,weatherlink.com 1.10,2013-02-08 04:58:00,
2013-02-07 23:13:00,47.2,46.0,29.93,SW,231,0.0,1.0,96,0.00,,,0.37,weatherlink.com 1.10,2013-02-08 05:13:00,
2013-02-07 23:28:00,47.2,46.0,29.94,SSW,196,0.0,0.0,96,0.00,,,0.37,weatherlink.com 1.10,2013-02-08 05:28:00,
2013-02-07 23:43:00,47.1,46.0,29.94,SSW,196,0.0,0.0,96,0.00,,,0.37,weatherlink.com 1.10,2013-02-08 05:43:00,
2013-02-07 23:58:00,47.1,46.0,29.94,SSW,196,0.0,0.0,96,0.00,,,0.37,weatherlink.com 1.10,2013-02-08 05:58:00,